Time;durP1;ratioP1;P1;durP2;ratioP2;P2;SDS_P1;SDS_P2;PMS_P1;PMS_P2;Temp;Humidity;BMP_temperature;BMP_pressure;BME280_temperature;BME280_humidity;BME280_pressure;Samples;Min_cycle;Max_cycle;Signal;HPM_P1;HPM_P2
2021/08/02 00:00:48;;;;;;;;;2.25;2.00;;;;;-143.39;100.00;63593.47;4886920;29;46047;-81
2021/08/02 00:03:17;;;;;;;;;1.00;1.00;;;;;-143.39;100.00;63593.47;4886664;29;45552;-81
2021/08/02 00:05:46;;;;;;;;;2.50;1.00;;;;;-143.39;100.00;63593.47;4886966;29;45341;-82
2021/08/02 00:08:18;;;;;;;;;4.00;3.00;;;;;-143.39;100.00;63593.47;4885223;29;46017;-81
2021/08/02 00:10:45;;;;;;;;;2.00;2.00;;;;;-143.39;100.00;63593.47;4898802;29;45475;-81
2021/08/02 00:13:20;;;;;;;;;2.25;1.75;;;;;-143.39;100.00;63593.47;4902121;29;45489;-81
2021/08/02 00:15:47;;;;;;;;;2.50;2.00;;;;;-143.39;100.00;63593.47;4887436;29;45341;-81
2021/08/02 00:18:12;;;;;;;;;2.00;2.00;;;;;-143.39;100.00;63593.47;4886421;29;45225;-81
2021/08/02 00:20:39;;;;;;;;;2.00;2.00;;;;;-143.39;100.00;63593.47;4886336;29;45292;-81
2021/08/02 00:23:07;;;;;;;;;4.50;2.00;;;;;-143.39;100.00;63593.47;4869582;29;45258;-81
2021/08/02 00:25:34;;;;;;;;;3.00;3.00;;;;;-143.39;100.00;63593.47;4869421;29;45276;-81
2021/08/02 00:28:01;;;;;;;;;5.00;1.75;;;;;-143.39;100.00;63593.47;4888750;29;45257;-81
2021/08/02 00:30:27;;;;;;;;;2.00;2.00;;;;;-143.39;100.00;63593.47;4886490;29;46386;-81
2021/08/02 00:32:53;;;;;;;;;3.50;2.75;;;;;-143.39;100.00;63593.47;4887000;29;46010;-81
2021/08/02 00:35:19;;;;;;;;;2.25;2.25;;;;;-143.39;100.00;63593.47;4889938;29;45499;-81
2021/08/02 00:38:03;;;;;;;;;3.00;2.00;;;;;-143.39;100.00;63593.47;4888130;29;45156;-81
2021/08/02 00:40:49;;;;;;;;;3.25;2.00;;;;;-143.39;100.00;63593.47;4885919;29;45518;-82
2021/08/02 00:43:52;;;;;;;;;3.00;1.00;;;;;-143.39;100.00;63593.47;4886269;29;45648;-81
2021/08/02 00:46:22;;;;;;;;;4.00;2.00;;;;;-143.39;100.00;63593.47;4888104;29;45466;-82
2021/08/02 00:48:56;;;;;;;;;2.00;2.00;;;;;-143.39;100.00;63593.47;4904100;29;45316;-81
2021/08/02 00:51:22;;;;;;;;;3.00;3.00;;;;;-143.39;100.00;63593.47;4904976;29;45528;-82
2021/08/02 00:53:52;;;;;;;;;3.50;2.00;;;;;-143.39;100.00;63593.47;4886995;29;45556;-81
2021/08/02 00:56:18;;;;;;;;;2.75;2.75;;;;;-143.39;100.00;63593.47;4893153;29;45317;-81
2021/08/02 00:58:47;;;;;;;;;5.00;3.75;;;;;-143.39;100.00;63593.47;4871389;29;45608;-81
2021/08/02 01:01:14;;;;;;;;;4.25;3.00;;;;;-143.39;100.00;63593.47;4886029;29;46584;-81
2021/08/02 01:03:41;;;;;;;;;2.00;2.00;;;;;-143.39;100.00;63593.47;4885631;29;45469;-81
2021/08/02 01:06:09;;;;;;;;;3.00;1.75;;;;;-143.39;100.00;63593.47;4885864;29;45243;-82
2021/08/02 01:08:39;;;;;;;;;5.75;3.00;;;;;-143.39;100.00;63593.47;4885859;29;45284;-82
2021/08/02 01:11:11;;;;;;;;;3.00;3.00;;;;;-143.39;100.00;63593.47;4900556;29;45806;-82
2021/08/02 01:13:38;;;;;;;;;3.00;3.00;;;;;-143.39;100.00;63593.47;4881906;29;45517;-82
2021/08/02 01:16:07;;;;;;;;;4.00;4.00;;;;;-143.39;100.00;63593.47;4887050;29;45458;-81
2021/08/02 01:18:34;;;;;;;;;6.25;4.00;;;;;-143.39;100.00;63593.47;4888892;29;45277;-81
2021/08/02 01:21:04;;;;;;;;;4.75;3.00;;;;;-143.39;100.00;63593.47;4884520;29;46213;-81
2021/08/02 01:23:30;;;;;;;;;2.75;2.75;;;;;-143.39;100.00;63593.47;4865797;29;45351;-81
2021/08/02 01:25:56;;;;;;;;;6.25;2.75;;;;;-143.39;100.00;63593.47;4870515;29;45193;-82
2021/08/02 01:28:21;;;;;;;;;3.00;3.00;;;;;-143.39;100.00;63593.47;4894524;29;45437;-82
2021/08/02 01:30:48;;;;;;;;;2.75;2.75;;;;;-143.39;100.00;63593.47;4889159;29;45920;-82
2021/08/02 01:33:19;;;;;;;;;3.00;3.00;;;;;-143.39;100.00;63593.47;4894244;29;45272;-82
2021/08/02 01:35:44;;;;;;;;;1.75;1.75;;;;;-143.39;100.00;63593.47;4885578;29;45402;-81
2021/08/02 01:38:11;;;;;;;;;2.00;2.00;;;;;-143.39;100.00;63593.47;4885622;29;45461;-82
2021/08/02 01:40:36;;;;;;;;;2.00;2.00;;;;;-143.39;100.00;63593.47;4885817;29;46451;-81
2021/08/02 01:43:03;;;;;;;;;2.25;2.25;;;;;-143.39;100.00;63593.47;4886408;29;45242;-81
2021/08/02 01:45:30;;;;;;;;;4.00;3.00;;;;;-143.39;100.00;63593.47;4868740;29;45448;-81
2021/08/02 01:48:10;;;;;;;;;3.50;1.75;;;;;-143.39;100.00;63593.47;4885142;29;45470;-81
2021/08/02 01:50:39;;;;;;;;;2.00;2.00;;;;;-143.39;100.00;63593.47;4885273;29;45513;-81
2021/08/02 01:53:19;;;;;;;;;4.00;3.00;;;;;-143.39;100.00;63593.47;4885173;29;45243;-81
2021/08/02 01:55:51;;;;;;;;;3.00;2.25;;;;;-143.39;100.00;63593.47;4887671;29;45336;-81
2021/08/02 01:58:17;;;;;;;;;6.25;2.25;;;;;-143.39;100.00;63593.47;4871263;29;45486;-81
2021/08/02 02:00:47;;;;;;;;;2.75;2.75;;;;;-143.39;100.00;63593.47;4885083;29;45905;-82
2021/08/02 02:03:18;;;;;;;;;3.00;3.00;;;;;-143.39;100.00;63593.47;4886376;29;45225;-81
2021/08/02 02:05:52;;;;;;;;;3.00;3.00;;;;;-143.39;100.00;63593.47;4887368;29;45328;-81
2021/08/02 02:08:32;;;;;;;;;3.25;3.00;;;;;-143.39;100.00;63593.47;4884847;29;45371;-81
2021/08/02 02:11:01;;;;;;;;;4.00;3.00;;;;;-143.39;100.00;63593.47;4898681;29;46528;-81
2021/08/02 02:13:38;;;;;;;;;3.75;3.00;;;;;-143.39;100.00;63593.47;4897035;29;45484;-82
2021/08/02 02:16:06;;;;;;;;;4.00;2.75;;;;;-143.39;100.00;63593.47;4899481;29;45500;-82
2021/08/02 02:18:34;;;;;;;;;3.50;3.50;;;;;-143.39;100.00;63593.47;4884727;29;45348;-82
2021/08/02 02:21:02;;;;;;;;;2.75;2.25;;;;;-143.39;100.00;63593.47;4884599;29;45657;-82
2021/08/02 02:23:28;;;;;;;;;3.25;3.25;;;;;-143.39;100.00;63593.47;4884861;29;45529;-82
2021/08/02 02:25:54;;;;;;;;;5.50;3.00;;;;;-143.39;100.00;63593.47;4899962;29;45464;-81
2021/08/02 02:28:20;;;;;;;;;5.50;4.75;;;;;-143.39;100.00;63593.47;4886627;29;45542;-82
2021/08/02 02:30:47;;;;;;;;;4.75;3.00;;;;;-143.39;100.00;63593.47;4884601;29;45292;-82
2021/08/02 02:33:15;;;;;;;;;2.00;2.00;;;;;-143.39;100.00;63593.47;4899138;29;46181;-82
2021/08/02 02:35:42;;;;;;;;;4.00;4.00;;;;;-143.39;100.00;63593.47;4883409;29;45458;-82
2021/08/02 02:38:10;;;;;;;;;4.00;4.00;;;;;-143.39;100.00;63593.47;4899134;29;45480;-82
2021/08/02 02:40:43;;;;;;;;;2.75;2.50;;;;;-143.39;100.00;63593.47;4867234;29;47336;-82
2021/08/02 02:43:10;;;;;;;;;5.00;3.00;;;;;-143.39;100.00;63593.47;4884720;29;45495;-81
2021/08/02 02:45:37;;;;;;;;;5.00;3.75;;;;;-143.39;100.00;63593.47;4884677;29;45405;-82
2021/08/02 02:48:04;;;;;;;;;3.50;3.00;;;;;-143.39;100.00;63593.47;4869662;29;45836;-82
2021/08/02 02:50:31;;;;;;;;;3.50;2.00;;;;;-143.39;100.00;63593.47;4886335;29;45456;-82
2021/08/02 02:52:57;;;;;;;;;4.00;4.00;;;;;-143.39;100.00;63593.47;4884419;29;45533;-82
2021/08/02 02:55:25;;;;;;;;;4.25;3.25;;;;;-143.39;100.00;63593.47;4885099;29;45425;-82
2021/08/02 02:57:52;;;;;;;;;3.50;3.50;;;;;-143.39;100.00;63593.47;4891234;29;45379;-82
2021/08/02 03:00:19;;;;;;;;;5.00;3.25;;;;;-143.39;100.00;63593.47;4884415;29;46073;-82
2021/08/02 03:02:47;;;;;;;;;4.00;2.75;;;;;-143.39;100.00;63593.47;4884450;29;45492;-82
2021/08/02 03:05:13;;;;;;;;;3.75;3.00;;;;;-143.39;100.00;63593.47;4867588;29;45333;-82
2021/08/02 03:07:40;;;;;;;;;4.50;2.75;;;;;-143.39;100.00;63593.47;4884137;29;45296;-82
2021/08/02 03:10:08;;;;;;;;;5.50;3.25;;;;;-143.39;100.00;63593.47;4892684;29;45309;-82
2021/08/02 03:12:34;;;;;;;;;2.25;2.25;;;;;-143.39;100.00;63593.47;4906575;29;45419;-82
2021/08/02 03:15:00;;;;;;;;;3.25;3.25;;;;;-143.39;100.00;63593.47;4878455;29;45346;-82
2021/08/02 03:17:26;;;;;;;;;3.75;3.00;;;;;-143.39;100.00;63593.47;4907304;29;45363;-82
2021/08/02 03:19:51;;;;;;;;;3.00;3.00;;;;;-143.39;100.00;63593.47;4900762;29;46307;-82
2021/08/02 03:22:28;;;;;;;;;3.25;3.25;;;;;-143.39;100.00;63593.47;4870887;29;45958;-82
2021/08/02 03:25:05;;;;;;;;;6.00;4.00;;;;;-143.39;100.00;63593.47;4889244;29;45406;-82
2021/08/02 03:27:43;;;;;;;;;3.75;2.25;;;;;-143.39;100.00;63593.47;4873207;29;45490;-82
2021/08/02 03:30:13;;;;;;;;;7.00;4.25;;;;;-143.39;100.00;63593.47;4890523;29;46377;-82
2021/08/02 03:32:42;;;;;;;;;3.00;3.00;;;;;-143.39;100.00;63593.47;4890702;29;45415;-82
2021/08/02 03:35:10;;;;;;;;;4.50;3.00;;;;;-143.39;100.00;63593.47;4871822;29;45299;-82
2021/08/02 03:37:37;;;;;;;;;3.00;3.00;;;;;-143.39;100.00;63593.47;4887423;29;45318;-82
2021/08/02 03:40:05;;;;;;;;;3.50;3.00;;;;;-143.39;100.00;63593.47;4886905;29;45450;-82
2021/08/02 03:42:34;;;;;;;;;4.25;3.00;;;;;-143.39;100.00;63593.47;4887410;29;45412;-82
2021/08/02 03:45:00;;;;;;;;;7.00;4.50;;;;;-143.39;100.00;63593.47;4887319;29;45371;-82
2021/08/02 03:47:26;;;;;;;;;4.50;3.00;;;;;-143.39;100.00;63593.47;4887122;29;45394;-82
2021/08/02 03:49:52;;;;;;;;;3.75;3.75;;;;;-143.39;100.00;63593.47;4887003;29;45383;-82
2021/08/02 03:52:17;;;;;;;;;5.00;3.00;;;;;-143.39;100.00;63593.47;4887186;29;45418;-82
2021/08/02 03:54:43;;;;;;;;;4.00;3.00;;;;;-143.39;100.00;63593.47;4888126;29;45332;-82
2021/08/02 03:57:09;;;;;;;;;3.25;3.25;;;;;-143.39;100.00;63593.47;4895761;29;45388;-82
2021/08/02 03:59:35;;;;;;;;;4.00;4.00;;;;;-143.39;100.00;63593.47;4887320;29;45304;-82
2021/08/02 04:02:00;;;;;;;;;5.00;3.50;;;;;-143.39;100.00;63593.47;4870401;29;45258;-81
2021/08/02 04:04:26;;;;;;;;;6.50;4.00;;;;;-143.39;100.00;63593.47;4886913;29;45330;-82
2021/08/02 04:06:51;;;;;;;;;2.75;2.00;;;;;-143.39;100.00;63593.47;4886824;29;45561;-82
2021/08/02 04:09:16;;;;;;;;;5.00;4.00;;;;;-143.39;100.00;63593.47;4887599;29;46428;-81
2021/08/02 04:11:45;;;;;;;;;2.75;2.75;;;;;-143.39;100.00;63593.47;4888744;29;45170;-82
2021/08/02 04:14:10;;;;;;;;;5.75;5.00;;;;;-143.39;100.00;63593.47;4879210;29;45566;-82
2021/08/02 04:16:37;;;;;;;;;4.75;3.50;;;;;-143.39;100.00;63593.47;4888698;29;45431;-81
2021/08/02 04:19:04;;;;;;;;;4.50;4.00;;;;;-143.39;100.00;63593.47;4871394;29;47147;-81
2021/08/02 04:21:29;;;;;;;;;7.25;5.00;;;;;-143.39;100.00;63593.47;4874080;29;45579;-81
2021/08/02 04:23:55;;;;;;;;;7.25;3.75;;;;;-143.39;100.00;63593.47;4890254;29;45256;-81
2021/08/02 04:26:21;;;;;;;;;3.75;3.75;;;;;-143.39;100.00;63593.47;4889583;29;45252;-82
2021/08/02 04:28:46;;;;;;;;;3.25;3.25;;;;;-143.39;100.00;63593.47;4890744;29;45321;-81
2021/08/02 04:31:12;;;;;;;;;5.00;3.25;;;;;-143.39;100.00;63593.47;4887813;29;45198;-81
2021/08/02 04:33:38;;;;;;;;;4.00;4.00;;;;;-143.39;100.00;63593.47;4869624;29;45316;-81
2021/08/02 04:36:05;;;;;;;;;4.50;4.50;;;;;-143.39;100.00;63593.47;4869648;29;45493;-81
2021/08/02 04:38:31;;;;;;;;;10.50;8.00;;;;;-143.39;100.00;63593.47;4886466;29;45595;-81
2021/08/02 04:40:56;;;;;;;;;5.00;4.75;;;;;-143.39;100.00;63593.47;4869567;29;45371;-81
2021/08/02 04:43:22;;;;;;;;;7.75;5.25;;;;;-143.39;100.00;63593.47;4869825;29;45581;-81
2021/08/02 04:45:48;;;;;;;;;5.75;2.25;;;;;-143.39;100.00;63593.47;4881870;29;46044;-81
2021/08/02 04:48:13;;;;;;;;;7.50;4.00;;;;;-143.39;100.00;63593.47;4886278;29;46201;-81
2021/08/02 04:50:38;;;;;;;;;7.00;4.00;;;;;-143.39;100.00;63593.47;4886147;29;45366;-81
2021/08/02 04:53:04;;;;;;;;;7.25;4.00;;;;;-143.39;100.00;63593.47;4886553;29;45343;-81
2021/08/02 04:55:30;;;;;;;;;4.50;3.25;;;;;-143.39;100.00;63593.47;4887770;29;45481;-81
2021/08/02 04:57:55;;;;;;;;;4.50;3.00;;;;;-143.39;100.00;63593.47;4893269;29;45481;-81
2021/08/02 05:00:21;;;;;;;;;6.00;4.50;;;;;-143.39;100.00;63593.47;4889109;29;45189;-81
2021/08/02 05:02:46;;;;;;;;;3.75;3.25;;;;;-143.39;100.00;63593.47;4889921;29;45218;-82
2021/08/02 05:05:11;;;;;;;;;3.00;3.00;;;;;-143.39;100.00;63593.47;4888846;29;45514;-81
2021/08/02 05:07:37;;;;;;;;;5.50;5.50;;;;;-143.39;100.00;63593.47;4886623;29;45554;-81
2021/08/02 05:10:03;;;;;;;;;5.00;5.00;;;;;-143.39;100.00;63593.47;4892676;29;45402;-81
2021/08/02 05:12:28;;;;;;;;;5.25;4.00;;;;;-143.39;100.00;63593.47;4904995;29;45340;-81
2021/08/02 05:14:53;;;;;;;;;4.00;4.00;;;;;-143.39;100.00;63593.47;4882065;29;45868;-81
2021/08/02 05:17:18;;;;;;;;;4.50;3.50;;;;;-143.39;100.00;63593.47;4885703;29;45286;-81
2021/08/02 05:19:44;;;;;;;;;9.00;4.25;;;;;-143.39;100.00;63593.47;4868922;29;45249;-81
2021/08/02 05:22:09;;;;;;;;;4.00;4.00;;;;;-143.39;100.00;63593.47;4886574;29;45225;-81
2021/08/02 05:24:35;;;;;;;;;5.75;5.75;;;;;-143.39;100.00;63593.47;4888913;29;45165;-81
2021/08/02 05:27:00;;;;;;;;;4.75;4.75;;;;;-143.39;100.00;63593.47;4884848;29;47169;-81
2021/08/02 05:29:26;;;;;;;;;5.75;5.00;;;;;-143.39;100.00;63593.47;4885482;29;45326;-81
2021/08/02 05:31:51;;;;;;;;;4.00;3.25;;;;;-143.39;100.00;63593.47;4868889;29;45871;-81
2021/08/02 05:34:16;;;;;;;;;3.25;3.25;;;;;-143.39;100.00;63593.47;4885042;29;45378;-82
2021/08/02 05:36:42;;;;;;;;;4.00;4.00;;;;;-143.39;100.00;63593.47;4885470;29;46023;-81
2021/08/02 05:39:08;;;;;;;;;5.00;4.50;;;;;-143.39;100.00;63593.47;4885165;29;45309;-82
2021/08/02 05:41:34;;;;;;;;;6.00;3.00;;;;;-143.39;100.00;63593.47;4885714;29;45358;-83
2021/08/02 05:43:59;;;;;;;;;6.00;6.00;;;;;-143.39;100.00;63593.47;4901149;29;45423;-83
2021/08/02 05:46:25;;;;;;;;;3.25;2.00;;;;;-143.39;100.00;63593.47;4887728;29;45418;-83
2021/08/02 05:48:50;;;;;;;;;2.25;2.25;;;;;-143.39;100.00;63593.47;4885800;29;45268;-83
2021/08/02 05:51:16;;;;;;;;;5.00;3.25;;;;;-143.39;100.00;63593.47;4884175;29;45161;-83
2021/08/02 05:53:41;;;;;;;;;5.00;3.50;;;;;-143.39;100.00;63593.47;4885139;29;45591;-83
2021/08/02 05:56:07;;;;;;;;;4.00;2.75;;;;;-143.39;100.00;63593.47;4891761;29;46144;-83
2021/08/02 05:58:32;;;;;;;;;3.00;3.00;;;;;-143.39;100.00;63593.47;4870015;29;45725;-83
2021/08/02 06:00:57;;;;;;;;;4.75;3.25;;;;;-143.39;100.00;63593.47;4885495;29;45205;-83
2021/08/02 06:03:23;;;;;;;;;5.25;3.50;;;;;-143.39;100.00;63593.47;4868038;29;45489;-83
2021/08/02 06:05:48;;;;;;;;;2.50;2.50;;;;;-143.39;100.00;63593.47;4868196;29;47345;-82
2021/08/02 06:08:14;;;;;;;;;3.50;3.50;;;;;-143.39;100.00;63593.47;4870941;29;45320;-82
2021/08/02 06:10:39;;;;;;;;;5.25;3.75;;;;;-143.39;100.00;63593.47;4897747;29;45423;-82
2021/08/02 06:13:04;;;;;;;;;6.25;4.25;;;;;-143.39;100.00;63593.47;4899662;29;45551;-82
2021/08/02 06:15:30;;;;;;;;;6.25;3.25;;;;;-143.39;100.00;63593.47;4885261;29;45291;-82
2021/08/02 06:17:55;;;;;;;;;3.25;3.25;;;;;-143.39;100.00;63593.47;4884792;29;45439;-82
2021/08/02 06:20:21;;;;;;;;;7.00;3.00;;;;;-143.39;100.00;63593.47;4885116;29;45331;-82
2021/08/02 06:22:46;;;;;;;;;5.25;4.00;;;;;-143.39;100.00;63593.47;4885386;29;45370;-82
2021/08/02 06:25:12;;;;;;;;;6.00;4.00;;;;;-143.39;100.00;63593.47;4885667;29;45318;-82
2021/08/02 06:27:37;;;;;;;;;4.75;3.00;;;;;-143.39;100.00;63593.47;4886098;29;45362;-82
2021/08/02 06:30:04;;;;;;;;;3.75;3.00;;;;;-143.39;100.00;63593.47;4887435;29;45897;-82
2021/08/02 06:32:29;;;;;;;;;5.75;4.00;;;;;-143.39;100.00;63593.47;4885869;29;45367;-83
2021/08/02 06:34:55;;;;;;;;;5.75;3.00;;;;;-143.39;100.00;63593.47;4884832;29;45399;-83
2021/08/02 06:37:22;;;;;;;;;4.50;4.00;;;;;-143.39;100.00;63593.47;4884716;29;45328;-82
2021/08/02 06:39:48;;;;;;;;;8.50;5.25;;;;;-143.39;100.00;63593.47;4899299;29;45263;-81
2021/08/02 06:42:14;;;;;;;;;6.25;3.25;;;;;-143.39;100.00;63593.47;4901095;29;45241;-81
2021/08/02 06:44:42;;;;;;;;;4.75;4.00;;;;;-143.39;100.00;63593.47;4885703;29;45311;-81
2021/08/02 06:47:08;;;;;;;;;4.25;4.25;;;;;-143.39;100.00;63593.47;4883526;29;45414;-82
2021/08/02 06:49:34;;;;;;;;;6.00;4.75;;;;;-143.39;100.00;63593.47;4867844;29;45535;-81
2021/08/02 06:51:59;;;;;;;;;6.00;5.00;;;;;-143.39;100.00;63593.47;4869245;29;45430;-81
2021/08/02 06:54:24;;;;;;;;;7.25;5.00;;;;;-143.39;100.00;63593.47;4868518;29;47413;-81
2021/08/02 06:56:50;;;;;;;;;7.00;5.75;;;;;-143.39;100.00;63593.47;4876173;29;45504;-83
2021/08/02 06:59:15;;;;;;;;;6.75;5.50;;;;;-143.39;100.00;63593.47;4885638;29;45282;-81
2021/08/02 07:01:41;;;;;;;;;5.00;5.00;;;;;-143.39;100.00;63593.47;4886463;29;45513;-82
2021/08/02 07:04:06;;;;;;;;;9.00;5.50;;;;;-143.39;100.00;63593.47;4869379;29;48215;-82
2021/08/02 07:06:31;;;;;;;;;6.00;4.50;;;;;-143.39;100.00;63593.47;4869103;29;45181;-82
2021/08/02 07:08:58;;;;;;;;;4.75;4.75;;;;;-143.39;100.00;63593.47;4886473;29;45243;-83
2021/08/02 07:11:27;;;;;;;;;7.00;5.25;;;;;-143.39;100.00;63593.47;4901719;29;45173;-82
2021/08/02 07:13:54;;;;;;;;;9.00;4.50;;;;;-143.39;100.00;63593.47;4894977;29;45661;-82
2021/08/02 07:16:23;;;;;;;;;7.50;5.00;;;;;-143.39;100.00;63593.47;4868573;29;45456;-82
2021/08/02 07:18:51;;;;;;;;;4.25;4.00;;;;;-143.39;100.00;63593.47;4884293;29;45245;-82
2021/08/02 07:21:17;;;;;;;;;6.00;5.00;;;;;-143.39;100.00;63593.47;4883956;29;45447;-82
2021/08/02 07:23:42;;;;;;;;;5.00;5.00;;;;;-143.39;100.00;63593.47;4867175;29;47062;-82
2021/08/02 07:26:07;;;;;;;;;7.50;5.25;;;;;-143.39;100.00;63593.47;4883848;29;45354;-82
2021/08/02 07:28:33;;;;;;;;;8.25;6.25;;;;;-143.39;100.00;63593.47;4884120;29;45300;-82
2021/08/02 07:30:58;;;;;;;;;5.00;5.00;;;;;-143.39;100.00;63593.47;4867363;29;45730;-82
2021/08/02 07:33:23;;;;;;;;;11.00;7.50;;;;;-143.39;100.00;63593.47;4883914;29;46281;-82
2021/08/02 07:35:49;;;;;;;;;11.25;5.75;;;;;-143.39;100.00;63593.47;4871979;29;45416;-82
2021/08/02 07:38:14;;;;;;;;;5.25;4.00;;;;;-143.39;100.00;63593.47;4872576;29;45317;-82
2021/08/02 07:40:40;;;;;;;;;8.25;5.50;;;;;-143.39;100.00;63593.47;4871837;29;45384;-82
2021/08/02 07:43:06;;;;;;;;;6.25;5.75;;;;;-143.39;100.00;63593.47;4871801;29;47245;-83
2021/08/02 07:45:31;;;;;;;;;7.50;6.00;;;;;-143.39;100.00;63593.47;4902881;29;45314;-84
2021/08/02 07:47:57;;;;;;;;;6.50;5.25;;;;;-143.39;100.00;63593.47;4888299;29;45175;-81
2021/08/02 07:50:22;;;;;;;;;5.50;4.00;;;;;-143.39;100.00;63593.47;4886085;29;45204;-82
2021/08/02 07:52:47;;;;;;;;;8.00;5.00;;;;;-143.39;100.00;63593.47;4884525;29;46500;-81
2021/08/02 07:55:13;;;;;;;;;4.25;4.25;;;;;-143.39;100.00;63593.47;4867486;29;45254;-82
2021/08/02 07:57:39;;;;;;;;;6.75;5.25;;;;;-143.39;100.00;63593.47;4893861;29;45218;-82
2021/08/02 08:00:07;;;;;;;;;6.00;4.50;;;;;-143.39;100.00;63593.47;4887745;29;45614;-83
2021/08/02 08:02:32;;;;;;;;;6.00;6.00;;;;;-143.39;100.00;63593.47;4887927;29;46103;-83
2021/08/02 08:04:57;;;;;;;;;5.00;4.75;;;;;-143.39;100.00;63593.47;4888124;29;45381;-83
2021/08/02 08:07:23;;;;;;;;;8.00;4.50;;;;;-143.39;100.00;63593.47;4870585;29;45367;-82
2021/08/02 08:09:48;;;;;;;;;4.75;4.00;;;;;-143.39;100.00;63593.47;4903328;29;45449;-82
2021/08/02 08:12:13;;;;;;;;;7.00;4.00;;;;;-143.39;100.00;63593.47;4889242;29;47601;-82
2021/08/02 08:14:39;;;;;;;;;7.00;5.75;;;;;-143.39;100.00;63593.47;4872988;29;45256;-82
2021/08/02 08:17:04;;;;;;;;;8.75;5.00;;;;;-143.39;100.00;63593.47;4870494;29;45555;-82
2021/08/02 08:19:31;;;;;;;;;7.00;4.50;;;;;-143.39;100.00;63593.47;4887126;29;45416;-82
2021/08/02 08:21:57;;;;;;;;;6.75;4.00;;;;;-143.39;100.00;63593.47;4887935;29;46199;-82
2021/08/02 08:24:22;;;;;;;;;7.25;5.00;;;;;-143.39;100.00;63593.47;4887385;29;45249;-82
2021/08/02 08:26:48;;;;;;;;;7.00;7.00;;;;;-143.39;100.00;63593.47;4901588;29;45234;-83
2021/08/02 08:29:13;;;;;;;;;8.00;7.00;;;;;-143.39;100.00;63593.47;4869904;29;45581;-82
2021/08/02 08:31:38;;;;;;;;;8.50;6.50;;;;;-143.39;100.00;63593.47;4887424;29;47388;-82
2021/08/02 08:34:04;;;;;;;;;6.75;4.75;;;;;-143.39;100.00;63593.47;4889333;29;45162;-83
2021/08/02 08:36:30;;;;;;;;;5.25;5.00;;;;;-143.39;100.00;63593.47;4890034;29;45227;-82
2021/08/02 08:38:56;;;;;;;;;4.75;4.75;;;;;-143.39;100.00;63593.47;4905474;29;45558;-82
2021/08/02 08:41:21;;;;;;;;;7.25;5.75;;;;;-143.39;100.00;63593.47;4891503;29;45473;-82
2021/08/02 08:43:54;;;;;;;;;8.50;4.75;;;;;-143.39;100.00;63593.47;4891966;29;45391;-83
2021/08/02 08:46:21;;;;;;;;;10.75;7.00;;;;;-143.39;100.00;63593.47;4892189;29;45268;-82
2021/08/02 08:48:47;;;;;;;;;5.75;5.00;;;;;-143.39;100.00;63593.47;4890722;29;45414;-83
2021/08/02 08:51:14;;;;;;;;;6.50;5.50;;;;;-143.39;100.00;63593.47;4872520;29;48134;-82
2021/08/02 08:53:42;;;;;;;;;5.00;4.50;;;;;-143.39;100.00;63593.47;4887755;29;45433;-83
2021/08/02 08:56:08;;;;;;;;;7.00;5.00;;;;;-143.39;100.00;63593.47;4893348;29;45291;-83
2021/08/02 08:58:33;;;;;;;;;5.00;5.00;;;;;-143.39;100.00;63593.47;4889191;29;45461;-83
2021/08/02 09:01:04;;;;;;;;;4.25;3.75;;;;;-143.39;100.00;63593.47;4887119;29;45308;-83
2021/08/02 09:03:30;;;;;;;;;5.50;4.25;;;;;-143.39;100.00;63593.47;4887208;29;45284;-83
2021/08/02 09:06:07;;;;;;;;;3.75;3.75;;;;;-143.39;100.00;63593.47;4887278;29;45250;-83
2021/08/02 09:08:41;;;;;;;;;6.50;4.25;;;;;-143.39;100.00;63593.47;4877219;29;45508;-83
2021/08/02 09:11:07;;;;;;;;;8.25;4.00;;;;;-143.39;100.00;63593.47;4887634;29;47098;-83
2021/08/02 09:13:36;;;;;;;;;7.00;5.75;;;;;-143.39;100.00;63593.47;4897993;29;45314;-83
2021/08/02 09:16:20;;;;;;;;;5.75;5.25;;;;;-143.39;100.00;63593.47;4885911;29;45374;-83
2021/08/02 09:18:58;;;;;;;;;3.50;3.50;;;;;-143.39;100.00;63593.47;4885826;29;45332;-83
2021/08/02 09:21:24;;;;;;;;;7.00;5.00;;;;;-143.39;100.00;63593.47;4885522;29;45410;-83
2021/08/02 09:23:52;;;;;;;;;2.75;2.00;;;;;-143.39;100.00;63593.47;4885820;29;45366;-84
2021/08/02 09:26:36;;;;;;;;;4.00;4.00;;;;;-143.39;100.00;63593.47;4885709;29;45245;-83
2021/08/02 09:29:04;;;;;;;;;3.50;3.50;;;;;-143.39;100.00;63593.47;4886404;29;45182;-83
2021/08/02 09:31:38;;;;;;;;;5.00;4.50;;;;;-143.39;100.00;63593.47;4886371;29;46328;-83
2021/08/02 09:34:07;;;;;;;;;3.75;3.75;;;;;-143.39;100.00;63593.47;4868693;29;45405;-83
2021/08/02 09:36:41;;;;;;;;;6.75;2.75;;;;;-143.39;100.00;63593.47;4885792;29;45391;-83
2021/08/02 09:39:09;;;;;;;;;3.25;3.00;;;;;-143.39;100.00;63593.47;4885238;29;45313;-83
2021/08/02 09:41:35;;;;;;;;;3.75;3.75;;;;;-143.39;100.00;63593.47;4899869;29;47028;-83
2021/08/02 09:44:01;;;;;;;;;5.00;2.00;;;;;-143.39;100.00;63593.47;4868718;29;45486;-84
2021/08/02 09:46:27;;;;;;;;;3.00;2.00;;;;;-143.39;100.00;63593.47;4885554;29;45234;-84
2021/08/02 09:49:01;;;;;;;;;4.25;2.50;;;;;-143.39;100.00;63593.47;4885280;29;45304;-84
2021/08/02 09:51:38;;;;;;;;;2.00;2.00;;;;;-143.39;100.00;63593.47;4868413;29;47357;-84
2021/08/02 09:54:03;;;;;;;;;3.50;2.50;;;;;-143.39;100.00;63593.47;4885855;29;45497;-84
2021/08/02 09:56:30;;;;;;;;;0.00;0.00;;;;;-143.39;100.00;63593.47;4895156;29;45232;-84
2021/08/02 09:58:56;;;;;;;;;3.75;2.25;;;;;-143.39;100.00;63593.47;4885378;29;45451;-82
2021/08/02 10:01:22;;;;;;;;;2.00;2.00;;;;;-143.39;100.00;63593.47;4885086;29;46201;-83
2021/08/02 10:03:48;;;;;;;;;2.00;1.75;;;;;-143.39;100.00;63593.47;4885483;29;45340;-83
2021/08/02 10:06:15;;;;;;;;;3.00;3.00;;;;;-143.39;100.00;63593.47;4885248;29;45330;-83
2021/08/02 10:08:41;;;;;;;;;3.25;3.00;;;;;-143.39;100.00;63593.47;4885194;29;45341;-83
2021/08/02 10:11:08;;;;;;;;;2.00;2.00;;;;;-143.39;100.00;63593.47;4900125;29;46019;-82
2021/08/02 10:13:41;;;;;;;;;4.50;4.50;;;;;-143.39;100.00;63593.47;4896901;29;45321;-83
2021/08/02 10:16:11;;;;;;;;;2.50;2.50;;;;;-143.39;100.00;63593.47;4885849;29;45303;-82
2021/08/02 10:18:38;;;;;;;;;2.00;2.00;;;;;-143.39;100.00;63593.47;4885191;29;45411;-82
2021/08/02 10:21:05;;;;;;;;;5.75;3.25;;;;;-143.39;100.00;63593.47;4883621;29;45723;-82
2021/08/02 10:23:30;;;;;;;;;4.00;3.75;;;;;-143.39;100.00;63593.47;4885022;29;45359;-82
2021/08/02 10:25:56;;;;;;;;;2.00;2.00;;;;;-143.39;100.00;63593.47;4884933;29;45300;-82
2021/08/02 10:28:21;;;;;;;;;2.50;2.50;;;;;-143.39;100.00;63593.47;4884839;29;45205;-82
2021/08/02 10:31:00;;;;;;;;;4.25;2.50;;;;;-143.39;100.00;63593.47;4884815;29;45432;-82
2021/08/02 10:33:36;;;;;;;;;5.00;4.00;;;;;-143.39;100.00;63593.47;4885052;29;45506;-83
2021/08/02 10:36:12;;;;;;;;;3.25;3.25;;;;;-143.39;100.00;63593.47;4885121;29;45451;-82
2021/08/02 10:38:47;;;;;;;;;2.50;2.50;;;;;-143.39;100.00;63593.47;4885323;29;45418;-83
2021/08/02 10:41:30;;;;;;;;;4.75;3.00;;;;;-143.39;100.00;63593.47;4885134;29;45449;-82
2021/08/02 10:43:57;;;;;;;;;2.50;2.50;;;;;-143.39;100.00;63593.47;4884687;29;45377;-82
2021/08/02 10:46:28;;;;;;;;;1.75;1.75;;;;;-143.39;100.00;63593.47;4884939;29;45475;-83
2021/08/02 10:49:06;;;;;;;;;3.75;3.00;;;;;-143.39;100.00;63593.47;4884437;29;45173;-82
2021/08/02 10:51:31;;;;;;;;;3.00;3.00;;;;;-143.39;100.00;63593.47;4884394;29;45539;-82
2021/08/02 10:53:57;;;;;;;;;3.00;3.00;;;;;-143.39;100.00;63593.47;4883080;29;45332;-82
2021/08/02 10:56:27;;;;;;;;;3.00;3.00;;;;;-143.39;100.00;63593.47;4893156;29;45469;-82
2021/08/02 10:58:53;;;;;;;;;2.75;2.75;;;;;-143.39;100.00;63593.47;4868039;29;45612;-82
2021/08/02 11:01:20;;;;;;;;;2.75;2.75;;;;;-143.39;100.00;63593.47;4885326;29;45276;-82
2021/08/02 11:03:46;;;;;;;;;4.25;2.25;;;;;-143.39;100.00;63593.47;4885288;29;45366;-82
2021/08/02 11:06:14;;;;;;;;;2.50;2.50;;;;;-143.39;100.00;63593.47;4884619;29;45380;-82
2021/08/02 11:08:48;;;;;;;;;5.00;2.25;;;;;-143.39;100.00;63593.47;4884323;29;45375;-82
2021/08/02 11:11:31;;;;;;;;;5.00;3.00;;;;;-143.39;100.00;63593.47;4900440;29;45533;-82